Time;durP1;ratioP1;P1;durP2;ratioP2;P2;SDS_P1;SDS_P2;PMS_P1;PMS_P2;Temp;Humidity;BMP_temperature;BMP_pressure;BME280_temperature;BME280_humidity;BME280_pressure;Samples;Min_cycle;Max_cycle;Signal;HPM_P1;HPM_P2
2023/04/30 00:00:45;;;;;;;6.73;3.83;;;;;;;7.76;78.84;102243.28;5076569;28;20024;-88
2023/04/30 00:03:11;;;;;;;7.40;3.83;;;;;;;7.68;79.50;102245.72;5075826;28;20131;-89
2023/04/30 00:05:37;;;;;;;5.97;3.57;;;;;;;7.67;79.51;102237.91;5076454;28;20032;-88
2023/04/30 00:08:03;;;;;;;9.30;4.70;;;;;;;7.66;81.60;102238.75;5076457;28;20021;-88
2023/04/30 00:10:28;;;;;;;8.10;4.30;;;;;;;7.66;82.79;102243.91;5075680;28;20384;-88
2023/04/30 00:12:53;;;;;;;7.00;3.80;;;;;;;7.63;79.53;102241.31;5076319;28;20066;-89
2023/04/30 00:15:22;;;;;;;5.60;3.33;;;;;;;7.62;79.13;102247.31;5076629;28;20484;-88
2023/04/30 00:17:47;;;;;;;4.82;3.10;;;;;;;7.61;79.86;102245.56;5075748;28;20082;-89
2023/04/30 00:20:12;;;;;;;6.70;3.60;;;;;;;7.51;81.64;102237.63;5076254;28;20029;-88
2023/04/30 00:22:37;;;;;;;3.83;3.00;;;;;;;7.58;80.06;102252.41;5075982;28;20071;-89
2023/04/30 00:25:03;;;;;;;4.60;3.10;;;;;;;7.53;81.58;102240.25;5075454;28;20483;-88
2023/04/30 00:27:31;;;;;;;8.05;3.88;;;;;;;7.55;82.24;102242.00;5076210;28;20430;-88
2023/04/30 00:29:57;;;;;;;5.20;3.10;;;;;;;7.54;80.32;102248.00;5076430;28;20381;-88
2023/04/30 00:32:22;;;;;;;4.67;3.40;;;;;;;7.54;80.03;102245.41;5075556;28;20020;-88
2023/04/30 00:34:47;;;;;;;4.53;3.00;;;;;;;7.53;79.40;102248.88;5075909;28;20526;-88
2023/04/30 00:37:13;;;;;;;4.63;2.90;;;;;;;7.51;79.12;102252.25;5076081;28;20029;-88
2023/04/30 00:39:38;;;;;;;4.00;2.90;;;;;;;7.50;80.21;102247.91;5075901;28;20577;-89
2023/04/30 00:42:03;;;;;;;5.83;2.90;;;;;;;7.45;83.56;102258.16;5075908;28;20082;-88
2023/04/30 00:44:29;;;;;;;5.83;3.60;;;;;;;7.38;81.91;102238.22;5075365;28;20098;-88
2023/04/30 00:46:54;;;;;;;5.33;3.30;;;;;;;7.35;83.07;102254.53;5076257;28;20020;-88
2023/04/30 00:49:20;;;;;;;6.25;3.80;;;;;;;7.30;83.66;102250.97;5075545;28;20135;-89
2023/04/30 00:51:45;;;;;;;9.50;4.90;;;;;;;7.29;86.47;102254.38;5075341;28;20013;-88
2023/04/30 00:54:10;;;;;;;10.17;5.03;;;;;;;7.23;87.93;102243.94;5076048;28;20020;-88
2023/04/30 00:56:36;;;;;;;11.23;5.60;;;;;;;7.22;87.08;102245.63;5075788;28;20553;-89
2023/04/30 00:59:01;;;;;;;10.83;5.20;;;;;;;7.23;87.29;102252.56;5074683;28;20521;-89
2023/04/30 01:01:30;;;;;;;8.82;4.55;;;;;;;7.22;84.07;102245.63;5075124;28;20056;-89
2023/04/30 01:03:56;;;;;;;7.53;4.30;;;;;;;7.21;83.22;102241.31;5075525;28;20035;-89
2023/04/30 01:06:21;;;;;;;5.97;3.80;;;;;;;7.22;82.31;102242.19;5074814;28;20107;-88
2023/04/30 01:08:47;;;;;;;6.28;3.65;;;;;;;7.23;82.02;102247.38;5075683;28;20380;-89
2023/04/30 01:11:16;;;;;;;5.35;3.22;;;;;;;7.23;82.19;102243.94;5075699;28;20074;-89
2023/04/30 01:13:58;;;;;;;5.30;3.30;;;;;;;7.17;82.04;102239.53;5074780;28;20107;-88
2023/04/30 01:16:32;;;;;;;5.18;3.13;;;;;;;7.17;81.69;102239.53;5075196;28;20021;-88
2023/04/30 01:19:04;;;;;;;5.85;2.97;;;;;;;7.14;82.95;102238.59;5075677;28;20032;-88
2023/04/30 01:21:32;;;;;;;5.30;3.05;;;;;;;7.10;85.98;102242.78;5074771;28;20051;-88
2023/04/30 01:24:12;;;;;;;4.65;2.95;;;;;;;7.07;83.26;102237.59;5075528;28;20090;-89
2023/04/30 01:27:24;;;;;;;4.63;2.83;;;;;;;7.04;84.80;102234.94;5074634;28;20052;-87
2023/04/30 01:29:49;;;;;;;4.65;3.10;;;;;;;6.97;82.86;102230.47;5075173;28;20032;-89
2023/04/30 01:32:15;;;;;;;5.40;3.40;;;;;;;6.97;85.74;102236.50;5075227;28;20524;-87
2023/04/30 01:34:40;;;;;;;5.93;3.20;;;;;;;6.95;83.64;102239.06;5074271;28;20017;-88
2023/04/30 01:37:14;;;;;;;4.40;2.93;;;;;;;6.95;83.57;102246.81;5075022;28;20591;-89
2023/04/30 01:39:57;;;;;;;13.68;6.43;;;;;;;6.89;88.27;102244.06;5074620;28;20040;-89
2023/04/30 01:42:28;;;;;;;10.77;4.95;;;;;;;6.88;86.80;102242.31;5074614;28;20052;-89
2023/04/30 01:45:12;;;;;;;8.32;4.28;;;;;;;6.84;86.65;102245.69;5075390;28;20074;-89
2023/04/30 01:47:39;;;;;;;6.60;3.90;;;;;;;6.84;85.63;102250.84;5074741;28;20032;-89
2023/04/30 01:50:04;;;;;;;;;;;;;;;6.83;87.50;102248.22;5075174;28;20039;-89
2023/04/30 01:52:40;;;;;;;13.73;6.33;;;;;;;6.74;91.85;102249.75;5074844;28;19912;-89
2023/04/30 01:55:07;;;;;;;11.65;5.95;;;;;;;6.72;89.11;102251.41;5074700;28;20128;-89
2023/04/30 01:57:37;;;;;;;9.40;5.07;;;;;;;6.70;89.46;102247.94;5074645;28;20043;-89
2023/04/30 02:00:03;;;;;;;8.43;4.55;;;;;;;6.67;86.78;102249.56;5074699;28;20056;-89
2023/04/30 02:02:29;;;;;;;11.75;5.57;;;;;;;6.65;92.01;102250.41;5074337;28;20021;-90
2023/04/30 02:04:54;;;;;;;8.17;4.63;;;;;;;6.64;88.87;102238.34;5074883;28;20016;-89
2023/04/30 02:07:39;;;;;;;10.80;5.40;;;;;;;6.63;91.49;102248.63;5074393;28;20020;-86
2023/04/30 02:10:06;;;;;;;8.93;4.97;;;;;;;6.58;91.97;102252.81;5073379;28;20020;-87
2023/04/30 02:12:31;;;;;;;17.70;8.65;;;;;;;6.48;96.89;102247.41;5074583;28;20054;-87
2023/04/30 02:14:56;;;;;;;14.10;7.13;;;;;;;6.54;92.48;102253.56;5074595;28;20077;-87
2023/04/30 02:17:22;;;;;;;11.30;5.70;;;;;;;6.49;91.03;102253.47;5073589;28;20043;-87
2023/04/30 02:19:47;;;;;;;9.00;4.83;;;;;;;6.51;90.38;102261.22;5074560;28;20115;-87
2023/04/30 02:22:12;;;;;;;8.70;4.43;;;;;;;6.49;89.31;102258.63;5074555;28;20020;-87
2023/04/30 02:24:37;;;;;;;11.98;5.45;;;;;;;6.45;95.18;102257.69;5073974;28;20025;-87
2023/04/30 02:27:03;;;;;;;16.48;7.45;;;;;;;6.39;97.13;102254.94;5074016;28;20040;-86
2023/04/30 02:29:28;;;;;;;15.63;7.43;;;;;;;6.37;95.85;102254.00;5073810;28;20060;-89
2023/04/30 02:31:57;;;;;;;12.23;6.03;;;;;;;6.41;92.19;102255.00;5073904;28;20028;-90
2023/04/30 02:34:22;;;;;;;10.55;4.97;;;;;;;6.32;92.09;102241.00;5074210;28;20032;-89
2023/04/30 02:36:47;;;;;;;11.23;5.93;;;;;;;6.37;94.58;102250.59;5074396;28;20492;-89
2023/04/30 02:39:13;;;;;;;10.87;5.30;;;;;;;6.35;93.42;102255.72;5073858;28;20036;-89
2023/04/30 02:41:38;;;;;;;10.87;5.10;;;;;;;6.33;91.11;102247.91;5074076;28;20089;-90
2023/04/30 02:44:03;;;;;;;10.05;4.63;;;;;;;6.35;91.17;102247.97;5074099;28;20130;-89
2023/04/30 02:46:28;;;;;;;5.95;3.72;;;;;;;6.36;90.92;102251.41;5073740;28;20033;-89
2023/04/30 02:48:54;;;;;;;9.80;4.63;;;;;;;6.27;93.93;102240.03;5074157;28;20054;-90
2023/04/30 02:51:19;;;;;;;10.18;4.60;;;;;;;6.29;92.05;102242.66;5073716;28;20701;-90
2023/04/30 02:53:44;;;;;;;6.57;3.90;;;;;;;6.28;91.19;102246.94;5074233;28;20070;-90
2023/04/30 02:56:10;;;;;;;6.97;3.80;;;;;;;6.23;91.82;102233.06;5073897;28;20026;-89
2023/04/30 02:58:38;;;;;;;6.00;3.67;;;;;;;6.27;90.32;102246.88;5073366;28;20025;-89
2023/04/30 03:01:05;;;;;;;6.55;3.53;;;;;;;6.27;89.98;102254.63;5073989;28;20020;-89
2023/04/30 03:03:31;;;;;;;6.38;3.30;;;;;;;6.25;89.63;102244.28;5073377;28;20106;-90
2023/04/30 03:05:58;;;;;;;5.43;3.27;;;;;;;6.27;89.02;102249.47;5073604;28;20048;-89
2023/04/30 03:08:23;;;;;;;4.25;2.97;;;;;;;6.22;89.29;102244.19;5073561;28;20024;-89
2023/04/30 03:10:49;;;;;;;5.03;3.27;;;;;;;6.24;88.82;102242.53;5073545;28;20028;-89
2023/04/30 03:13:14;;;;;;;4.43;3.15;;;;;;;6.21;88.78;102245.03;5073259;28;20055;-89
2023/04/30 03:15:40;;;;;;;5.77;3.43;;;;;;;6.20;88.54;102245.84;5073193;28;20046;-88
2023/04/30 03:18:05;;;;;;;5.57;3.15;;;;;;;6.18;88.23;102239.81;5073845;28;20028;-89
2023/04/30 03:20:31;;;;;;;4.47;3.08;;;;;;;6.14;88.44;102240.56;5073312;28;20118;-89
2023/04/30 03:22:56;;;;;;;4.38;3.10;;;;;;;6.12;88.25;102245.69;5073561;28;20035;-90
2023/04/30 03:25:27;;;;;;;4.03;2.90;;;;;;;6.12;88.16;102247.38;5073197;28;20448;-89
2023/04/30 03:27:52;;;;;;;4.75;3.10;;;;;;;6.09;88.34;102247.28;5072887;28;20063;-89
2023/04/30 03:30:18;;;;;;;4.17;2.80;;;;;;;6.05;88.26;102246.34;5073816;28;20533;-89
2023/04/30 03:32:43;;;;;;;4.37;2.73;;;;;;;6.06;88.35;102247.22;5073222;28;20028;-90
2023/04/30 03:35:08;;;;;;;6.53;3.30;;;;;;;6.03;88.02;102243.75;5073013;28;20041;-89
2023/04/30 03:37:34;;;;;;;4.75;2.92;;;;;;;6.01;88.18;102244.53;5073453;28;20052;-89
2023/04/30 03:39:59;;;;;;;5.22;3.28;;;;;;;6.01;87.83;102244.53;5073908;28;20032;-89
2023/04/30 03:42:24;;;;;;;4.37;2.90;;;;;;;5.99;88.09;102244.47;5073021;28;20473;-90
2023/04/30 03:44:50;;;;;;;4.47;2.83;;;;;;;5.96;88.42;102246.97;5073303;28;20100;-89
2023/04/30 03:47:15;;;;;;;4.68;2.80;;;;;;;5.95;88.52;102252.06;5073157;28;20033;-90
2023/04/30 03:49:40;;;;;;;4.00;2.75;;;;;;;5.94;88.37;102252.88;5073120;28;20055;-90
2023/04/30 03:52:09;;;;;;;4.35;2.80;;;;;;;5.93;88.12;102252.03;5073710;28;20036;-90
2023/04/30 03:54:34;;;;;;;3.70;2.70;;;;;;;5.90;88.52;102251.09;5072785;28;20033;-89
2023/04/30 03:57:02;;;;;;;5.93;2.73;;;;;;;5.88;89.58;102258.75;5073154;28;20020;-90
2023/04/30 03:59:27;;;;;;;8.82;4.63;;;;;;;5.83;93.76;102260.34;5072971;28;20024;-90
2023/04/30 04:01:53;;;;;;;14.60;7.07;;;;;;;5.74;97.55;102255.81;5072972;28;20017;-90
2023/04/30 04:04:18;;;;;;;12.63;6.20;;;;;;;5.77;94.58;102257.59;5072956;28;20456;-90
2023/04/30 04:06:43;;;;;;;10.77;5.17;;;;;;;5.71;92.49;102254.03;5072731;28;20029;-90
2023/04/30 04:09:09;;;;;;;10.05;5.20;;;;;;;5.75;91.01;102259.25;5073006;28;20025;-90
2023/04/30 04:11:34;;;;;;;8.73;4.50;;;;;;;5.72;91.05;102257.47;5073255;28;20033;-90
2023/04/30 04:13:59;;;;;;;6.97;4.15;;;;;;;5.74;91.94;102262.69;5073388;28;20071;-89
2023/04/30 04:16:25;;;;;;;14.98;6.78;;;;;;;5.70;94.75;102262.59;5073130;28;20025;-90
2023/04/30 04:18:50;;;;;;;13.07;6.00;;;;;;;5.71;93.02;102260.88;5073422;28;20492;-90
2023/04/30 04:21:16;;;;;;;10.13;5.20;;;;;;;5.72;93.33;102262.63;5072957;28;20029;-90
2023/04/30 04:23:41;;;;;;;10.33;5.37;;;;;;;5.71;94.01;102272.06;5072594;28;20454;-91
2023/04/30 04:26:06;;;;;;;10.13;4.97;;;;;;;5.70;92.38;102262.59;5073004;28;20136;-90
2023/04/30 04:28:32;;;;;;;10.27;5.22;;;;;;;5.67;95.83;102267.63;5072852;28;20020;-90
2023/04/30 04:30:57;;;;;;;12.75;6.07;;;;;;;5.63;98.32;102259.78;5072630;28;20532;-90
2023/04/30 04:33:22;;;;;;;14.90;7.32;;;;;;;5.61;98.21;102262.31;5073753;28;20048;-90
2023/04/30 04:35:48;;;;;;;18.65;9.02;;;;;;;5.56;100.00;102263.88;5076926;28;20425;-90
2023/04/30 04:38:13;;;;;;;18.17;8.90;;;;;;;5.54;100.00;102270.69;5076749;28;20013;-90
2023/04/30 04:40:38;;;;;;;15.50;7.55;;;;;;;5.53;98.42;102271.50;5076509;28;20574;-90
2023/04/30 04:43:04;;;;;;;14.98;7.57;;;;;;;5.54;100.00;102271.59;5076592;28;20081;-91
2023/04/30 04:45:30;;;;;;;16.25;7.55;;;;;;;5.53;100.00;102267.25;5075894;28;20111;-90
2023/04/30 04:47:55;;;;;;;12.70;6.47;;;;;;;5.52;98.07;102268.09;5076486;28;20469;-90
2023/04/30 04:50:21;;;;;;;11.43;6.20;;;;;;;5.57;96.27;102273.38;5075992;28;20016;-90
2023/04/30 04:52:46;;;;;;;10.27;5.40;;;;;;;5.61;95.13;102272.63;5076381;28;20112;-91
2023/04/30 04:55:15;;;;;;;8.45;4.28;;;;;;;5.66;94.84;102281.34;5076450;28;20027;-90
2023/04/30 04:57:41;;;;;;;6.28;3.83;;;;;;;5.68;94.31;102282.28;5075955;28;20468;-90
2023/04/30 05:00:08;;;;;;;7.67;4.03;;;;;;;5.73;94.04;102277.25;5076321;28;20025;-90
2023/04/30 05:02:33;;;;;;;;;;;;;;;5.76;94.63;102285.06;5076615;28;20608;-90
2023/04/30 05:04:58;;;;;;;6.23;3.93;;;;;;;5.76;95.71;102277.34;5076176;28;19923;-90
2023/04/30 05:07:27;;;;;;;14.73;6.83;;;;;;;5.73;99.72;102282.41;5076175;28;20071;-90
2023/04/30 05:09:52;;;;;;;14.50;7.20;;;;;;;5.71;100.00;102284.94;5075791;28;20365;-90
2023/04/30 05:12:17;;;;;;;16.00;7.77;;;;;;;5.70;100.00;102278.03;5075833;28;20028;-90
2023/04/30 05:14:46;;;;;;;17.75;8.98;;;;;;;5.74;99.97;102280.72;5075626;28;20103;-90
2023/04/30 05:17:11;;;;;;;19.15;9.88;;;;;;;5.75;100.00;102280.75;5076232;28;20016;-90
2023/04/30 05:19:37;;;;;;;19.00;10.10;;;;;;;5.78;100.00;102285.09;5076001;28;20522;-91
2023/04/30 05:22:03;;;;;;;20.67;11.80;;;;;;;5.75;100.00;102275.59;5075921;28;20025;-90
2023/04/30 05:24:28;;;;;;;20.73;11.18;;;;;;;5.79;100.00;102277.44;5075631;28;20028;-91
2023/04/30 05:26:54;;;;;;;17.98;9.25;;;;;;;5.84;100.00;102275.84;5075257;28;20186;-90
2023/04/30 05:29:19;;;;;;;21.03;10.67;;;;;;;5.81;100.00;102272.31;5075597;28;20024;-91
2023/04/30 05:31:45;;;;;;;21.38;12.35;;;;;;;5.77;100.00;102261.06;5075553;28;20090;-91
2023/04/30 05:34:10;;;;;;;20.25;11.65;;;;;;;5.91;100.00;102276.88;5075558;28;20032;-89
2023/04/30 05:36:36;;;;;;;21.10;12.07;;;;;;;5.86;100.00;102262.97;5075522;28;20111;-90
2023/04/30 05:39:01;;;;;;;20.83;12.48;;;;;;;5.92;100.00;102264.84;5075206;28;20021;-89
2023/04/30 05:41:27;;;;;;;20.03;11.27;;;;;;;6.08;100.00;102284.25;5074751;28;20032;-91
2023/04/30 05:43:52;;;;;;;22.43;12.67;;;;;;;6.13;100.00;102280.06;5075085;28;20056;-90
2023/04/30 05:46:17;;;;;;;21.67;11.75;;;;;;;6.18;100.00;102289.66;5075004;28;20025;-91
2023/04/30 05:48:43;;;;;;;24.03;14.50;;;;;;;6.19;100.00;102280.25;5075905;28;20066;-96
2023/04/30 05:51:09;;;;;;;22.27;12.23;;;;;;;6.28;100.00;102283.03;5083282;28;20039;-96
2023/04/30 05:53:34;;;;;;;22.08;13.27;;;;;;;6.33;100.00;102278.00;5083601;28;20042;-96
2023/04/30 05:56:00;;;;;;;21.17;12.30;;;;;;;6.43;100.00;102279.09;5075771;28;20029;-95
2023/04/30 05:58:25;;;;;;;20.63;12.27;;;;;;;6.49;100.00;102285.28;5075182;28;20078;-93
2023/04/30 06:00:51;;;;;;;23.05;14.70;;;;;;;6.53;100.00;102275.91;5075555;28;20070;-95
2023/04/30 06:03:19;;;;;;;23.47;14.33;;;;;;;6.60;100.00;102276.91;5075031;28;20027;-94
2023/04/30 06:05:45;;;;;;;20.23;12.18;;;;;;;6.68;100.00;102277.13;5075448;28;20017;-95
2023/04/30 06:08:11;;;;;;;22.60;13.45;;;;;;;6.76;100.00;102275.59;5075337;28;20036;-95
2023/04/30 06:10:37;;;;;;;19.80;11.27;;;;;;;6.84;99.72;102276.66;5075152;28;20100;-96
2023/04/30 06:13:06;;;;;;;22.73;13.73;;;;;;;6.90;100.00;102273.34;5079133;28;20061;-96
2023/04/30 06:15:32;;;;;;;22.80;14.27;;;;;;;6.95;99.54;102269.16;5081301;28;20044;-96
2023/04/30 06:17:57;;;;;;;21.57;13.13;;;;;;;7.05;99.75;102278.84;5076607;28;20020;-95
2023/04/30 06:20:23;;;;;;;21.43;12.57;;;;;;;7.15;99.22;102279.06;5079245;28;20023;-91
2023/04/30 06:22:48;;;;;;;19.73;11.52;;;;;;;7.22;98.95;102279.22;5074624;28;20108;-96
2023/04/30 06:25:13;;;;;;;18.83;9.90;;;;;;;7.30;98.67;102278.53;5074044;28;20040;-88
2023/04/30 06:27:38;;;;;;;18.00;8.87;;;;;;;7.38;97.93;102276.97;5073708;28;20028;-87
2023/04/30 06:30:04;;;;;;;19.57;10.40;;;;;;;7.43;97.94;102275.34;5072976;28;20021;-82
2023/04/30 06:32:30;;;;;;;17.08;9.00;;;;;;;7.52;97.19;102272.06;5073083;28;20480;-81
2023/04/30 06:34:55;;;;;;;20.33;10.90;;;;;;;7.51;96.76;102260.88;5073344;28;20054;-87
2023/04/30 06:37:20;;;;;;;19.87;10.77;;;;;;;7.70;96.07;102271.56;5072598;28;20456;-87
2023/04/30 06:39:46;;;;;;;18.77;9.68;;;;;;;7.76;96.30;102265.66;5073645;28;20103;-87
2023/04/30 06:42:11;;;;;;;14.80;7.50;;;;;;;7.84;96.38;102266.66;5073722;28;20021;-90
2023/04/30 06:44:36;;;;;;;17.40;8.73;;;;;;;7.97;95.88;102267.78;5073864;28;20019;-91
2023/04/30 06:47:02;;;;;;;16.63;8.77;;;;;;;8.67;95.37;102275.00;5073170;28;20024;-91
2023/04/30 06:49:27;;;;;;;17.73;9.47;;;;;;;11.12;82.66;102267.22;5073428;28;20025;-90
2023/04/30 06:51:54;;;;;;;17.47;9.30;;;;;;;13.01;80.84;102264.00;5073157;28;20397;-87
2023/04/30 06:54:21;;;;;;;17.95;9.23;;;;;;;14.92;64.88;102271.50;5072056;28;20031;-88
2023/04/30 06:56:47;;;;;;;16.55;8.23;;;;;;;15.97;64.06;102274.59;5073165;28;20027;-90
2023/04/30 06:59:12;;;;;;;13.23;7.03;;;;;;;17.16;63.91;102275.19;5073175;28;20465;-89
2023/04/30 07:01:37;;;;;;;12.97;6.70;;;;;;;18.63;62.69;102276.22;5073605;28;20035;-91
2023/04/30 07:04:03;;;;;;;13.03;7.00;;;;;;;19.51;54.63;102276.38;5073905;28;20016;-90
2023/04/30 07:06:29;;;;;;;13.17;6.50;;;;;;;19.48;55.52;102279.09;5072841;28;20044;-91
2023/04/30 07:08:54;;;;;;;14.43;7.10;;;;;;;19.00;48.34;102284.91;5074027;28;20056;-91
2023/04/30 07:11:22;;;;;;;12.27;6.67;;;;;;;18.43;55.21;102284.59;5073031;28;20094;-90
2023/04/30 07:13:48;;;;;;;13.30;7.25;;;;;;;17.61;51.80;102289.97;5073695;28;20046;-91
2023/04/30 07:16:15;;;;;;;16.10;7.77;;;;;;;16.14;54.24;102288.28;5073828;28;20028;-91
2023/04/30 07:18:47;;;;;;;15.30;8.00;;;;;;;14.59;59.64;102282.28;5072607;28;20027;-89
2023/04/30 07:21:12;;;;;;;14.30;7.90;;;;;;;13.67;63.43;102286.41;5073617;28;20079;-90
2023/04/30 07:23:38;;;;;;;14.50;7.03;;;;;;;12.82;67.47;102283.19;5073046;28;20052;-89
2023/04/30 07:26:06;;;;;;;17.33;8.70;;;;;;;12.31;71.30;102284.94;5072578;28;20102;-90
2023/04/30 07:28:31;;;;;;;15.95;8.30;;;;;;;11.86;72.95;102277.91;5072088;28;20563;-89
2023/04/30 07:30:56;;;;;;;15.20;7.70;;;;;;;11.68;74.31;102273.50;5073357;28;20052;-92
2023/04/30 07:33:24;;;;;;;17.83;9.17;;;;;;;11.27;74.46;102263.84;5071337;28;20028;-89
2023/04/30 07:35:51;;;;;;;15.85;8.32;;;;;;;11.31;75.69;102267.31;5072751;28;20066;-90
2023/04/30 07:38:17;;;;;;;15.13;7.65;;;;;;;11.36;76.59;102265.63;5073628;28;20412;-89
2023/04/30 07:40:45;;;;;;;14.55;7.10;;;;;;;11.45;76.29;102265.66;5071721;28;20017;-89
2023/04/30 07:43:11;;;;;;;16.42;8.63;;;;;;;11.37;77.47;102272.56;5072971;28;20028;-90
2023/04/30 07:45:37;;;;;;;15.27;7.77;;;;;;;11.41;76.63;102266.50;5072324;28;20040;-90
2023/04/30 07:48:05;;;;;;;15.27;7.43;;;;;;;11.49;76.96;102262.19;5071775;28;20464;-89
2023/04/30 07:50:32;;;;;;;12.65;6.40;;;;;;;11.56;77.67;102263.97;5072830;28;20020;-89
2023/04/30 07:52:58;;;;;;;14.98;7.28;;;;;;;11.68;77.33;102267.47;5073108;28;20020;-91
2023/04/30 07:55:23;;;;;;;14.13;7.07;;;;;;;11.75;78.67;102269.19;5072328;28;20457;-91
2023/04/30 07:57:49;;;;;;;14.33;7.20;;;;;;;11.79;77.18;102254.47;5072284;28;20021;-90
2023/04/30 08:00:17;;;;;;;11.23;6.07;;;;;;;11.96;77.37;102263.19;5072639;28;20112;-89
2023/04/30 08:02:44;;;;;;;11.02;5.82;;;;;;;12.14;77.01;102266.69;5070720;28;20392;-90
2023/04/30 08:05:10;;;;;;;13.02;6.35;;;;;;;12.20;74.24;102251.09;5072849;28;20095;-90
2023/04/30 08:07:35;;;;;;;16.43;8.30;;;;;;;12.16;75.49;102262.38;5071838;28;20056;-89
2023/04/30 08:10:01;;;;;;;12.60;6.80;;;;;;;12.31;74.85;102264.13;5076744;28;20083;-88
2023/04/30 08:12:26;;;;;;;14.10;6.90;;;;;;;12.42;75.06;102271.94;5076482;28;20082;-90
2023/04/30 08:15:03;;;;;;;15.20;7.43;;;;;;;12.50;73.78;102275.41;5076094;28;20067;-91
2023/04/30 08:17:29;;;;;;;15.07;7.90;;;;;;;12.56;74.03;102274.53;5076233;28;20024;-91
2023/04/30 08:19:54;;;;;;;13.57;7.00;;;;;;;12.64;74.61;102275.38;5076101;28;20353;-90
2023/04/30 08:22:20;;;;;;;16.50;8.07;;;;;;;12.65;68.85;102280.59;5075783;28;20457;-89
2023/04/30 08:24:45;;;;;;;15.00;8.03;;;;;;;12.62;70.58;102272.78;5076827;28;20104;-89
2023/04/30 08:27:10;;;;;;;17.20;8.40;;;;;;;12.68;71.08;102271.91;5076592;28;20132;-86
2023/04/30 08:29:36;;;;;;;15.90;7.20;;;;;;;12.82;72.97;102266.69;5075118;28;20036;-89
2023/04/30 08:32:02;;;;;;;11.57;6.40;;;;;;;13.03;73.85;102270.97;5076070;28;20524;-88
2023/04/30 08:34:28;;;;;;;14.05;7.45;;;;;;;13.21;71.47;102269.19;5075360;28;20025;-88
2023/04/30 08:36:53;;;;;;;16.90;9.03;;;;;;;13.18;72.97;102275.28;5075151;28;20465;-88
2023/04/30 08:39:18;;;;;;;18.13;9.53;;;;;;;13.05;71.04;102273.56;5075384;28;20040;-88
2023/04/30 08:41:49;;;;;;;17.47;9.57;;;;;;;13.03;72.02;102263.16;5075529;28;20028;-89
2023/04/30 08:44:15;;;;;;;17.25;9.30;;;;;;;13.06;71.71;102265.72;5075453;28;20039;-89
2023/04/30 08:46:43;;;;;;;18.67;9.63;;;;;;;13.10;72.76;102269.22;5075590;28;20472;-88
2023/04/30 08:49:09;;;;;;;15.10;7.90;;;;;;;13.23;73.57;102268.28;5075746;28;20052;-88
2023/04/30 08:51:35;;;;;;;15.95;8.20;;;;;;;13.42;70.98;102269.13;5074646;28;20489;-88
2023/04/30 08:54:01;;;;;;;15.32;8.07;;;;;;;13.43;71.16;102264.78;5075793;28;20048;-87
2023/04/30 08:56:26;;;;;;;18.17;9.47;;;;;;;13.32;69.59;102269.16;5075114;28;20474;-87
2023/04/30 08:58:51;;;;;;;14.40;8.10;;;;;;;13.50;69.45;102271.69;5075288;28;20013;-88
2023/04/30 09:01:17;;;;;;;16.97;9.00;;;;;;;13.54;70.34;102264.72;5075195;28;20024;-87
2023/04/30 09:03:42;;;;;;;15.70;8.00;;;;;;;13.66;70.34;102264.66;5075994;28;20024;-90
2023/04/30 09:06:08;;;;;;;17.10;8.83;;;;;;;13.70;68.79;102263.78;5075663;28;20372;-87
2023/04/30 09:08:47;;;;;;;15.57;8.10;;;;;;;13.75;70.32;102266.38;5074997;28;20063;-79
2023/04/30 09:11:27;;;;;;;12.10;6.80;;;;;;;13.95;69.51;102268.84;5073956;28;20039;-89
2023/04/30 09:13:56;;;;;;;13.77;7.30;;;;;;;14.05;69.12;102261.81;5075519;28;20025;-95
2023/04/30 09:16:31;;;;;;;12.25;6.10;;;;;;;14.18;71.03;102246.94;5075404;28;20028;-93
2023/04/30 09:19:07;;;;;;;9.95;5.90;;;;;;;14.50;67.88;102251.88;5074958;28;20092;-93
2023/04/30 09:21:35;;;;;;;14.23;7.50;;;;;;;14.52;64.29;102264.94;5075626;28;20032;-93
2023/04/30 09:24:03;;;;;;;16.10;8.15;;;;;;;14.41;66.51;102262.41;5071685;28;20040;-93
2023/04/30 09:26:38;;;;;;;13.98;7.13;;;;;;;14.42;65.45;102251.09;5055070;28;20120;-93
2023/04/30 09:29:13;;;;;;;12.85;6.90;;;;;;;14.46;66.37;102251.91;5070478;28;20040;-93
2023/04/30 09:32:07;;;;;;;10.55;5.55;;;;;;;14.65;67.35;102244.78;5073508;28;20021;-93
2023/04/30 09:34:36;;;;;;;14.80;7.40;;;;;;;14.77;64.49;102239.47;5074809;28;20028;-93
2023/04/30 09:37:11;;;;;;;14.48;8.00;;;;;;;14.79;64.53;102252.50;5075122;28;20051;-94
2023/04/30 09:40:06;;;;;;;13.25;7.65;;;;;;;14.82;63.26;102255.09;5074168;28;20016;-92
2023/04/30 09:42:31;;;;;;;11.73;6.30;;;;;;;15.01;65.63;102255.75;5070776;28;20492;-93
2023/04/30 09:45:10;;;;;;;12.40;6.70;;;;;;;15.06;64.69;102250.47;5075483;28;20035;-93
2023/04/30 09:47:51;;;;;;;13.90;7.10;;;;;;;15.07;62.79;102253.06;5074304;28;20477;-90
2023/04/30 09:50:37;;;;;;;10.98;6.03;;;;;;;14.85;60.17;102248.94;5074856;28;20095;-89
2023/04/30 09:53:09;;;;;;;;;;;;;;;15.10;62.62;102253.03;5074451;28;20029;-85
2023/04/30 09:55:50;;;;;;;10.40;6.10;;;;;;;15.28;60.26;102249.34;5073364;28;20434;-89
2023/04/30 09:58:27;;;;;;;12.60;6.45;;;;;;;15.08;59.47;102236.50;5074618;28;20025;-87
2023/04/30 10:00:54;;;;;;;13.85;7.78;;;;;;;14.79;61.47;102234.19;5074048;28;20024;-89
2023/04/30 10:03:21;;;;;;;12.82;7.47;;;;;;;14.66;61.87;102246.50;5073059;28;20118;-86
2023/04/30 10:05:51;;;;;;;13.35;7.25;;;;;;;14.64;61.93;102225.59;5074471;28;20111;-89
2023/04/30 10:08:41;;;;;;;10.90;6.13;;;;;;;14.85;61.89;102246.34;5073936;28;20020;-89
2023/04/30 10:11:08;;;;;;;10.60;5.93;;;;;;;14.98;62.73;102240.09;5074105;28;20039;-88
2023/04/30 10:13:53;;;;;;;;;;;;;;;15.15;59.74;102234.66;5074280;28;20054;-89
2023/04/30 10:16:50;;;;;;;12.15;6.88;;;;;;;15.21;61.52;102231.13;5073990;28;19920;-89
2023/04/30 10:19:43;;;;;;;13.18;7.13;;;;;;;15.39;62.07;102227.41;5074140;28;20020;-88
2023/04/30 10:22:22;;;;;;;11.32;6.63;;;;;;;15.67;60.97;102230.50;5073187;28;20446;-89
2023/04/30 10:24:51;;;;;;;9.25;5.32;;;;;;;15.86;61.16;102223.28;5074169;28;20460;-87
2023/04/30 10:27:32;;;;;;;10.13;5.65;;;;;;;16.30;60.29;102227.81;5073002;28;20044;-88
2023/04/30 10:30:09;;;;;;;9.68;5.43;;;;;;;16.45;56.19;102219.66;5073188;28;20043;-88
2023/04/30 10:33:09;;;;;;;11.90;6.63;;;;;;;16.38;57.56;102227.69;5072845;28;20556;-87
2023/04/30 10:36:09;;;;;;;10.13;6.18;;;;;;;16.41;58.61;102215.38;5072128;28;20052;-88
2023/04/30 10:38:37;;;;;;;7.55;4.38;;;;;;;16.66;61.18;102220.19;5073020;28;20024;-89
2023/04/30 10:41:05;;;;;;;11.10;6.53;;;;;;;16.75;55.85;102204.25;5073130;28;20538;-88
2023/04/30 10:43:32;;;;;;;10.60;6.10;;;;;;;16.86;55.39;102211.06;5072685;28;20081;-88
2023/04/30 10:45:57;;;;;;;;;;;;;;;16.80;56.70;102205.03;5073714;28;20032;-87
2023/04/30 10:48:24;;;;;;;11.10;6.17;;;;;;;16.44;53.94;102202.19;5073201;28;19912;-87
2023/04/30 10:50:59;;;;;;;10.25;5.88;;;;;;;16.60;55.93;102204.53;5073069;28;20279;-88
2023/04/30 10:53:27;;;;;;;7.53;4.57;;;;;;;16.85;58.75;102193.59;5073160;28;20020;-87
2023/04/30 10:56:15;;;;;;;9.32;5.32;;;;;;;17.04;54.82;102197.59;5073243;28;20039;-87
2023/04/30 10:58:44;;;;;;;9.23;5.43;;;;;;;16.90;53.73;102192.59;5072172;28;20072;-87
2023/04/30 11:01:21;;;;;;;11.25;6.47;;;;;;;16.49;54.37;102189.88;5073215;28;20103;-86
2023/04/30 11:04:07;;;;;;;11.00;6.03;;;;;;;16.56;56.32;102179.28;5072603;28;20023;-88
2023/04/30 11:06:55;;;;;;;8.40;4.82;;;;;;;16.79;54.56;102174.44;5072578;28;20105;-88
2023/04/30 11:09:42;;;;;;;9.13;5.55;;;;;;;16.86;56.34;102175.19;5072917;28;20042;-89
2023/04/30 11:12:18;;;;;;;6.95;4.32;;;;;;;16.98;54.49;102174.97;5072183;28;20029;-86
2023/04/30 11:14:45;;;;;;;7.85;5.10;;;;;;;17.03;53.05;102160.91;5072299;28;20469;-86
2023/04/30 11:17:21;;;;;;;;;;;;;;;17.15;56.52;102171.16;5073324;28;20384;-86
2023/04/30 11:19:49;;;;;;;6.07;4.18;;;;;;;17.35;56.05;102154.09;5071723;28;19919;-85
2023/04/30 11:22:15;;;;;;;9.85;5.40;;;;;;;17.66;53.72;102166.47;5072474;28;20441;-86
2023/04/30 11:24:58;;;;;;;10.93;6.30;;;;;;;17.38;51.40;102168.00;5068196;28;20025;-86
2023/04/30 11:27:28;;;;;;;7.95;4.70;;;;;;;17.59;56.66;102163.13;5072097;28;20392;-85
2023/04/30 11:30:08;;;;;;;9.82;5.45;;;;;;;17.38;50.49;102161.91;5072795;28;20028;-87